Altona, New York
Current Conditions -  °F | °C
As of 12:53 PM on Friday 19 Dec 2014 (Local Time) from KPBG Reporting Station
Overcast Overcast  
Wind Chill: -3°   Ceiling: 2600
Heat Index: -3°   Visibility: 10mi
Dew Point: -8°   Wind: 0mph
Humidity: 69%   Direction: NA
Pressure: 30.07"   Gusts: NA
Location:  44.89°N, 73.66°W
Report Text: KPBG 191753Z AUTO 00000KT 10SM OVC026 M03/M08 A3007 RMK AO2 SLP187 T10281078 11028 21039 50000
Loading
Personal Weather Stations






























Interactive Weather Map New forecast layout! Learn more

10-Day Weather Forecast

Advertisements
Track Severe Weather on mobile